| time (UTC) | temp F | wind direction | speed knots | gust knots | rain 1hr in | rain 24hr in | rain mn in | humidity % | barometer mb |
| 20260507090033 | 66 | 39 | 0.9 | 1.7 | 0.00 | 0.00 | 0.00 | 72 | 1012.2 |
| 20260507085509 | 66 | 58 | 3.5 | 6.1 | 0.00 | 0.00 | 0.00 | 73 | 1012.2 |
| 20260507085013 | 66 | 338 | 4.3 | 5.2 | 0.00 | 0.00 | 0.00 | 72 | 1011.9 |
| 20260507084513 | 66 | 73 | 3.5 | 4.3 | 0.00 | 0.00 | 0.00 | 72 | 1012.2 |
| 20260507084013 | 66 | 28 | 1.7 | 2.6 | 0.00 | 0.00 | 0.00 | 71 | 1012.2 |
| 20260507083510 | 66 | 121 | 2.6 | 3.5 | 0.00 | 0.00 | 0.00 | 72 | 1012.2 |
| 20260507083024 | 66 | 35 | 3.5 | 4.3 | 0.00 | 0.00 | 0.00 | 72 | 1012.2 |
| 20260507082509 | 66 | 55 | 5.2 | 6.1 | 0.00 | 0.00 | 0.00 | 71 | 1012.2 |
| 20260507082013 | 66 | 94 | 5.2 | 6.1 | 0.00 | 0.00 | 0.00 | 73 | 1012.2 |
| 20260507081513 | 66 | 75 | 5.2 | 6.1 | 0.00 | 0.00 | 0.00 | 73 | 1012.5 |
| 20260507081012 | 66 | 30 | 3.5 | 3.5 | 0.00 | 0.00 | 0.00 | 72 | 1012.2 |
| 20260507080509 | 66 | 66 | 3.5 | 5.2 | 0.00 | 0.00 | 0.00 | 72 | 1012.5 |
| 20260507080033 | 66 | 338 | 2.6 | 3.5 | 0.00 | 0.00 | 0.00 | 72 | 1012.5 |
| 20260507075510 | 66 | 71 | 3.5 | 3.5 | 0.00 | 0.00 | 0.00 | 73 | 1012.2 |
| 20260507075013 | 66 | 358 | 3.5 | 3.5 | 0.00 | 0.00 | 0.00 | 72 | 1012.5 |
| 20260507074513 | 66 | 3 | 3.5 | 3.5 | 0.00 | 0.00 | 0.00 | 72 | 1012.2 |
| 20260507074013 | 66 | 42 | 2.6 | 3.5 | 0.00 | 0.00 | 0.00 | 72 | 1012.2 |
| 20260507073510 | 66 | 91 | 5.2 | 6.1 | 0.00 | 0.00 | 0.00 | 71 | 1012.2 |
| 20260507073024 | 66 | 7 | 1.7 | 1.7 | 0.00 | 0.00 | 0.00 | 71 | 1012.5 |
| 20260507072509 | 66 | 112 | 1.7 | 1.7 | 0.00 | 0.00 | 0.00 | 71 | 1012.9 |
| 20260507072013 | 66 | 26 | 1.7 | 3.5 | 0.00 | 0.00 | 0.00 | 72 | 1012.5 |
| 20260507071513 | 66 | 94 | 1.7 | 3.5 | 0.00 | 0.00 | 0.00 | 72 | 1012.5 |
| 20260507071014 | 66 | 47 | 1.7 | 2.6 | 0.00 | 0.00 | 0.00 | 73 | 1012.5 |
| 20260507070510 | 66 | 7 | 2.6 | 3.5 | 0.00 | 0.00 | 0.00 | 72 | 1012.9 |
| 20260507070035 | 66 | 9 | 1.7 | 3.5 | 0.00 | 0.00 | 0.00 | 73 | 1012.5 |
| 20260507065510 | 66 | 137 | 0.9 | 1.7 | 0.00 | 0.00 | 0.00 | 74 | 1012.2 |
| 20260507065013 | 64 | 32 | 1.7 | 2.6 | 0.00 | 0.00 | 0.00 | 75 | 1012.2 |
| 20260507064513 | 64 | 129 | 4.3 | 5.2 | 0.00 | 0.00 | 0.00 | 74 | 1012.2 |
| 20260507064014 | 64 | 105 | 3.5 | 3.5 | 0.00 | 0.00 | 0.00 | 75 | 1012.2 |
| 20260507063509 | 64 | 99 | 1.7 | 1.7 | 0.00 | 0.00 | 0.00 | 76 | 1012.2 |
| 20260507063025 | 64 | 29 | 1.7 | 1.7 | 0.00 | 0.00 | 0.00 | 75 | 1012.2 |
| 20260507062509 | 64 | 56 | 0.9 | 1.7 | 0.00 | 0.00 | 0.00 | 75 | 1012.2 |
| 20260507062013 | 66 | 46 | 4.3 | 5.2 | 0.00 | 0.00 | 0.00 | 72 | 1011.9 |
| 20260507061514 | 66 | 328 | 0.9 | 1.7 | 0.00 | 0.00 | 0.00 | 74 | 1011.9 |
| 20260507061015 | 64 | 26 | 1.7 | 3.5 | 0.00 | 0.00 | 0.00 | 74 | 1011.9 |
| 20260507060509 | 64 | 33 | 1.7 | 3.5 | 0.00 | 0.00 | 0.00 | 75 | 1011.9 |
| 20260507060032 | 64 | 58 | 1.7 | 1.7 | 0.00 | 0.00 | 0.00 | 74 | 1011.9 |
| 20260507055509 | 64 | 68 | 3.5 | 6.1 | 0.00 | 0.00 | 0.00 | 74 | 1011.9 |
| 20260507055014 | 64 | 42 | 2.6 | 2.6 | 0.00 | 0.00 | 0.00 | 74 | 1011.9 |
| 20260507054513 | 64 | 18 | 1.7 | 3.5 | 0.00 | 0.00 | 0.00 | 73 | 1011.5 |
| 20260507054013 | 64 | 245 | 0.9 | 1.7 | 0.00 | 0.00 | 0.00 | 76 | 1011.5 |
| 20260507053509 | 64 | 315 | 3.5 | 6.1 | 0.00 | 0.00 | 0.00 | 75 | 1011.5 |
| 20260507053022 | 64 | 308 | 1.7 | 3.5 | 0.00 | 0.00 | 0.00 | 75 | 1011.5 |
| 20260507052509 | 64 | 44 | 2.6 | 3.5 | 0.00 | 0.00 | 0.00 | 75 | 1011.9 |
| 20260507052013 | 64 | 37 | 2.6 | 3.5 | 0.00 | 0.00 | 0.00 | 75 | 1011.5 |
| 20260507051513 | 64 | 72 | 4.3 | 6.1 | 0.00 | 0.00 | 0.00 | 75 | 1011.5 |
| 20260507051013 | 64 | 57 | 1.7 | 3.5 | 0.00 | 0.00 | 0.00 | 76 | 1011.5 |
| 20260507050510 | 63 | 9 | 0.9 | 1.7 | 0.00 | 0.00 | 0.00 | 75 | 1011.2 |
| 20260507050032 | 63 | 157 | 1.7 | 1.7 | 0.00 | 0.00 | 0.00 | 76 | 1011.5 |
| 20260507045510 | 63 | 356 | 1.7 | 2.6 | 0.00 | 0.00 | 0.00 | 76 | 1011.2 |
| 20260507045012 | 63 | 320 | 5.2 | 6.1 | 0.00 | 0.00 | 0.00 | 76 | 1011.2 |
| 20260507044513 | 63 | 311 | 0.9 | 1.7 | 0.00 | 0.00 | 0.00 | 77 | 1011.2 |
| 20260507044013 | 63 | 348 | 1.7 | 3.5 | 0.00 | 0.00 | 0.00 | 77 | 1011.2 |
| 20260507043509 | 63 | 234 | 2.6 | 3.5 | 0.00 | 0.00 | 0.00 | 77 | 1011.2 |
| 20260507043022 | 63 | 38 | 3.5 | 4.3 | 0.00 | 0.00 | 0.00 | 77 | 1011.2 |
| 20260507042509 | 63 | 300 | 3.5 | 3.5 | 0.00 | 0.00 | 0.00 | 77 | 1011.2 |
| 20260507042013 | 63 | 275 | 3.5 | 6.1 | 0.00 | 0.00 | 0.00 | 78 | 1011.2 |
| 20260507041513 | 63 | 291 | 5.2 | 6.1 | 0.00 | 0.00 | 0.00 | 77 | 1011.2 |
| 20260507041013 | 63 | 329 | 5.2 | 7.8 | 0.00 | 0.00 | 0.00 | 76 | 1011.2 |
| 20260507040509 | 63 | 347 | 5.2 | 6.1 | 0.00 | 0.00 | 0.00 | 77 | 1011.2 |
| 20260507040031 | 63 | 0 | 6.1 | 7.8 | 0.00 | 0.00 | 0.00 | 78 | 1011.2 |
| 20260507035510 | 63 | 267 | 3.5 | 4.3 | 0.00 | 0.00 | 0.00 | 78 | 1011.2 |
| 20260507035013 | 63 | 135 | 1.7 | 2.6 | 0.00 | 0.00 | 0.00 | 78 | 1010.8 |
| 20260507034014 | 63 | 334 | 6.1 | 7.8 | 0.00 | 0.00 | 0.00 | 78 | 1011.2 |
| 20260507033509 | 63 | 344 | 8.7 | 10.4 | 0.00 | 0.00 | 0.00 | 78 | 1011.2 |
| 20260507033022 | 61 | 337 | 7.0 | 7.8 | 0.00 | 0.00 | 0.00 | 79 | 1011.2 |
| 20260507032512 | 61 | 332 | 8.7 | 10.4 | 0.00 | 0.00 | 0.00 | 81 | 1010.8 |
| 20260507032013 | 61 | 130 | 1.7 | 2.6 | 0.00 | 0.00 | 0.00 | 84 | 1011.2 |
| 20260507031513 | 61 | 329 | 1.7 | 2.6 | 0.00 | 0.00 | 0.00 | 86 | 1010.8 |
| 20260507031013 | 61 | 135 | 0.9 | 1.7 | 0.00 | 0.00 | 0.00 | 86 | 1010.8 |
| 20260507030509 | 61 | 99 | 1.7 | 1.7 | 0.00 | 0.00 | 0.00 | 86 | 1011.2 |
| 20260507030034 | 61 | 33 | 7.0 | 7.8 | 0.00 | 0.00 | 0.00 | 86 | 1011.2 |
| 20260507025509 | 61 | 281 | 2.6 | 3.5 | 0.00 | 0.00 | 0.00 | 86 | 1011.2 |
| 20260507025012 | 61 | 19 | 1.7 | 1.7 | 0.00 | 0.00 | 0.00 | 86 | 1011.2 |
| 20260507024513 | 61 | 6 | 3.5 | 4.3 | 0.00 | 0.00 | 0.00 | 86 | 1010.8 |
| 20260507024013 | 61 | 28 | 2.6 | 3.5 | 0.00 | 0.00 | 0.00 | 86 | 1011.2 |
| 20260507023509 | 61 | 343 | 2.6 | 3.5 | 0.00 | 0.00 | 0.00 | 86 | 1011.2 |
| 20260507023022 | 61 | 9 | 2.6 | 3.5 | 0.00 | 0.00 | 0.00 | 86 | 1010.8 |
| 20260507022510 | 61 | 309 | 3.5 | 4.3 | 0.00 | 0.00 | 0.00 | 86 | 1011.2 |
| 20260507022013 | 61 | 23 | 1.7 | 1.7 | 0.00 | 0.00 | 0.00 | 86 | 1011.2 |
| 20260507021514 | 61 | 286 | 2.6 | 3.5 | 0.00 | 0.00 | 0.00 | 86 | 1011.2 |
| 20260507021013 | 61 | 347 | 3.5 | 7.8 | 0.00 | 0.00 | 0.00 | 86 | 1011.2 |
| 20260507020509 | 61 | 354 | 4.3 | 6.1 | 0.00 | 0.00 | 0.00 | 85 | 1011.2 |
| 20260507020031 | 61 | 85 | 4.3 | 5.2 | 0.00 | 0.00 | 0.00 | 85 | 1010.8 |
| 20260507015509 | 61 | 107 | 3.5 | 4.3 | 0.00 | 0.00 | 0.00 | 85 | 1010.8 |
| 20260507015013 | 61 | 289 | 0.9 | 0.9 | 0.00 | 0.00 | 0.00 | 85 | 1010.8 |
| 20260507014512 | 61 | 178 | 0.9 | 1.7 | 0.00 | 0.00 | 0.00 | 85 | 1010.8 |
| 20260507014014 | 61 | 181 | 0.0 | 0.9 | 0.00 | 0.00 | 0.00 | 85 | 1010.8 |
| 20260507013509 | 61 | 0 | 3.5 | 4.3 | 0.00 | 0.00 | 0.00 | 84 | 1010.8 |
| 20260507013022 | 61 | 144 | 1.7 | 1.7 | 0.00 | 0.00 | 0.00 | 84 | 1011.2 |
| 20260507012509 | 61 | 25 | 1.7 | 1.7 | 0.00 | 0.00 | 0.00 | 84 | 1010.8 |
| 20260507012014 | 61 | 264 | 1.7 | 2.6 | 0.00 | 0.00 | 0.00 | 83 | 1010.8 |
| 20260507011513 | 61 | 353 | 1.7 | 3.5 | 0.00 | 0.00 | 0.00 | 83 | 1010.8 |
| 20260507011013 | 61 | 132 | 0.9 | 1.7 | 0.00 | 0.00 | 0.00 | 83 | 1010.8 |
| 20260507010509 | 61 | 45 | 2.6 | 3.5 | 0.00 | 0.00 | 0.00 | 82 | 1010.8 |
| 20260507010031 | 61 | 96 | 1.7 | 2.6 | 0.00 | 0.00 | 0.00 | 82 | 1010.8 |
| 20260507005509 | 61 | 156 | 1.7 | 2.6 | 0.00 | 0.00 | 0.00 | 82 | 1010.8 |
| 20260507005013 | 61 | 38 | 2.6 | 3.5 | 0.00 | 0.00 | 0.00 | 82 | 1010.8 |
| 20260507004512 | 61 | 87 | 2.6 | 5.2 | 0.00 | 0.00 | 0.00 | 81 | 1011.2 |
| 20260507004013 | 61 | 42 | 5.2 | 7.0 | 0.00 | 0.00 | 0.00 | 81 | 1010.8 |
| 20260507003509 | 61 | 342 | 5.2 | 7.8 | 0.00 | 0.00 | 0.00 | 82 | 1010.8 |
| 20260507003022 | 61 | 354 | 0.9 | 1.7 | 0.00 | 0.00 | 0.00 | 82 | 1010.8 |
| 20260507002509 | 61 | 46 | 3.5 | 5.2 | 0.00 | 0.00 | 0.00 | 82 | 1011.2 |
| 20260507002013 | 61 | 71 | 3.5 | 7.8 | 0.00 | 0.00 | 0.00 | 82 | 1010.5 |
| 20260507001513 | 61 | 131 | 5.2 | 7.8 | 0.00 | 0.00 | 0.00 | 82 | 1010.5 |
| 20260507001013 | 63 | 110 | 1.7 | 3.5 | 0.00 | 0.00 | 0.00 | 82 | 1010.8 |
| 20260507000510 | 63 | 123 | 3.5 | 4.3 | 0.00 | 0.00 | 0.00 | 83 | 1010.8 |
| 20260507000034 | 61 | 109 | 5.2 | 6.1 | 0.00 | 0.00 | 0.00 | 83 | 1010.8 |
| 20260506235510 | 61 | 9 | 1.7 | 3.5 | 0.00 | 0.00 | 0.00 | 83 | 1010.8 |
| 20260506235014 | 61 | 66 | 7.0 | 7.8 | 0.00 | 0.00 | 0.00 | 83 | 1010.8 |
| 20260506234514 | 61 | 287 | 0.9 | 1.7 | 0.00 | 0.00 | 0.00 | 84 | 1010.5 |
| 20260506234012 | 61 | 122 | 0.9 | 2.6 | 0.00 | 0.00 | 0.00 | 86 | 1010.5 |
| 20260506233510 | 61 | 315 | 1.7 | 3.5 | 0.00 | 0.00 | 0.00 | 89 | 1010.5 |
| 20260506233023 | 61 | 233 | 7.0 | 7.8 | 0.00 | 0.00 | 0.00 | 90 | 1010.5 |
| 20260506232509 | 63 | 337 | 2.6 | 3.5 | 0.00 | 0.00 | 0.00 | 91 | 1010.5 |
| 20260506232013 | 63 | 305 | 1.7 | 1.7 | 0.00 | 0.00 | 0.00 | 91 | 1010.5 |
| 20260506231512 | 63 | 297 | 2.6 | 3.5 | 0.00 | 0.00 | 0.00 | 91 | 1010.5 |
| 20260506231013 | 63 | 352 | 2.6 | 3.5 | 0.00 | 0.00 | 0.00 | 91 | 1010.2 |
| 20260506230509 | 63 | 232 | 0.9 | 1.7 | 0.00 | 0.00 | 0.00 | 90 | 1010.2 |
| 20260506230032 | 63 | 178 | 0.0 | 0.9 | 0.00 | 0.00 | 0.00 | 90 | 1010.2 |
| 20260506225510 | 63 | 137 | 1.7 | 1.7 | 0.00 | 0.00 | 0.00 | 90 | 1010.2 |
| 20260506225013 | 63 | 132 | 0.9 | 1.7 | 0.00 | 0.00 | 0.00 | 90 | 1010.2 |
| 20260506224512 | 63 | 160 | 0.9 | 1.7 | 0.00 | 0.00 | 0.00 | 90 | 1010.2 |
| 20260506224015 | 63 | 145 | 0.9 | 1.7 | 0.00 | 0.00 | 0.00 | 90 | 1010.2 |
| 20260506223023 | 63 | 159 | 0.9 | 1.7 | 0.00 | 0.00 | 0.00 | 90 | 1010.2 |
| 20260506222509 | 64 | 168 | 0.0 | 1.7 | 0.00 | 0.00 | 0.00 | 90 | 1010.2 |
| 20260506222014 | 64 | 153 | 0.9 | 1.7 | 0.00 | 0.00 | 0.00 | 90 | 1010.2 |
| 20260506221513 | 63 | 32 | 0.9 | 0.9 | 0.00 | 0.00 | 0.00 | 90 | 1010.5 |
| 20260506220033 | 63 | 200 | 0.9 | 0.9 | 0.00 | 8.56 | 8.56 | 90 | 1010.2 |
| 20260506215510 | 64 | 148 | 3.5 | 4.3 | 0.00 | 8.56 | 8.56 | 90 | 1010.5 |
| 20260506215012 | 64 | 58 | 1.7 | 2.6 | 0.00 | 8.56 | 8.56 | 90 | 1010.5 |
| 20260506214514 | 64 | 166 | 1.7 | 3.5 | 0.00 | 8.56 | 8.56 | 90 | 1010.2 |
| 20260506214013 | 64 | 175 | 0.9 | 1.7 | 0.00 | 8.56 | 8.56 | 90 | 1010.2 |
| 20260506213511 | 64 | 145 | 0.9 | 1.7 | 0.00 | 8.56 | 8.56 | 90 | 1010.2 |
| 20260506213023 | 64 | 108 | 4.3 | 6.1 | 0.00 | 8.56 | 8.56 | 90 | 1010.5 |
| 20260506212509 | 64 | 126 | 3.5 | 4.3 | 0.00 | 8.56 | 8.56 | 91 | 1010.5 |
| 20260506212013 | 64 | 151 | 3.5 | 3.5 | 0.00 | 8.56 | 8.56 | 91 | 1010.5 |
| 20260506211512 | 64 | 165 | 3.5 | 4.3 | 0.00 | 8.56 | 8.56 | 91 | 1010.5 |
| 20260506211013 | 64 | 148 | 3.5 | 4.3 | 0.00 | 8.56 | 8.56 | 91 | 1010.5 |
| 20260506210510 | 64 | 156 | 1.7 | 3.5 | 0.00 | 8.56 | 8.56 | 91 | 1010.2 |
| 20260506205516 | 64 | 144 | 5.2 | 6.1 | 0.00 | 8.56 | 8.56 | 91 | 1010.5 |
| 20260506205013 | 64 | 131 | 3.5 | 4.3 | 0.00 | 8.56 | 8.56 | 91 | 1010.5 |
| 20260506204513 | 64 | 136 | 1.7 | 2.6 | 0.00 | 8.56 | 8.56 | 91 | 1010.5 |
| 20260506203510 | 64 | 203 | 3.5 | 3.5 | 0.00 | 8.56 | 8.56 | 91 | 1010.5 |
| 20260506203023 | 64 | 163 | 5.2 | 6.1 | 0.00 | 8.56 | 8.56 | 91 | 1010.5 |
| 20260506202509 | 64 | 131 | 6.1 | 7.8 | 0.00 | 8.56 | 8.56 | 91 | 1010.2 |
| 20260506202012 | 64 | 162 | 1.7 | 3.5 | 0.00 | 8.56 | 8.56 | 92 | 1010.5 |
| 20260506201513 | 64 | 157 | 3.5 | 4.3 | 0.00 | 8.56 | 8.56 | 92 | 1010.2 |
| 20260506201020 | 64 | 130 | 5.2 | 6.1 | 0.00 | 8.56 | 8.56 | 92 | 1010.2 |
| 20260506200031 | 64 | 145 | 1.7 | 3.5 | 0.00 | 8.56 | 8.56 | 92 | 1010.2 |
| 20260506195013 | 64 | 117 | 6.1 | 7.0 | 0.00 | 8.56 | 8.56 | 92 | 1009.8 |
| 20260506194512 | 64 | 110 | 3.5 | 4.3 | 0.00 | 8.56 | 8.56 | 92 | 1009.5 |
| 20260506194014 | 64 | 103 | 2.6 | 3.5 | 0.00 | 8.56 | 8.56 | 92 | 1009.8 |
| 20260506193510 | 64 | 337 | 3.5 | 5.2 | 0.00 | 8.56 | 8.56 | 91 | 1009.8 |
| 20260506193024 | 64 | 153 | 1.7 | 3.5 | 0.00 | 8.56 | 8.56 | 91 | 1009.8 |
| 20260506192510 | 64 | 142 | 2.6 | 3.5 | 0.00 | 8.56 | 8.56 | 91 | 1009.5 |
| 20260506192013 | 64 | 137 | 2.6 | 3.5 | 0.00 | 8.56 | 8.56 | 91 | 1009.5 |
| 20260506191512 | 64 | 151 | 6.1 | 7.8 | 0.00 | 8.56 | 8.56 | 91 | 1009.1 |
| 20260506191013 | 64 | 23 | 1.7 | 3.5 | 0.00 | 8.56 | 8.56 | 91 | 1009.5 |
| 20260506190509 | 64 | 315 | 2.6 | 3.5 | 0.00 | 8.56 | 8.56 | 91 | 1009.5 |
| 20260506190032 | 64 | 156 | 7.8 | 9.6 | 0.00 | 8.56 | 8.56 | 91 | 1009.1 |
| 20260506185509 | 64 | 159 | 6.1 | 9.6 | 0.00 | 8.56 | 8.56 | 91 | 1009.1 |
| 20260506184512 | 64 | 126 | 7.0 | 7.8 | 0.00 | 8.56 | 8.56 | 91 | 1009.1 |
| 20260506184013 | 64 | 136 | 5.2 | 7.8 | 0.00 | 8.56 | 8.56 | 91 | 1008.8 |
| 20260506183509 | 64 | 219 | 3.5 | 5.2 | 0.00 | 8.56 | 8.56 | 90 | 1009.1 |
| 20260506183024 | 64 | 154 | 7.0 | 11.3 | 0.00 | 8.56 | 8.56 | 90 | 1008.8 |
| 20260506182509 | 64 | 140 | 5.2 | 6.1 | 0.00 | 8.56 | 8.56 | 90 | 1008.8 |
| 20260506182015 | 64 | 130 | 4.3 | 4.3 | 0.00 | 8.56 | 8.56 | 90 | 1008.8 |
| 20260506181013 | 64 | 174 | 6.1 | 7.8 | 0.00 | 8.56 | 8.56 | 89 | 1008.8 |
| 20260506180509 | 64 | 153 | 4.3 | 5.2 | 0.00 | 8.56 | 8.56 | 89 | 1008.8 |
| 20260506180033 | 64 | 181 | 1.7 | 1.7 | 0.00 | 8.56 | 8.56 | 89 | 1008.8 |
| 20260506175013 | 64 | 90 | 5.2 | 6.1 | 0.00 | 8.56 | 8.56 | 89 | 1008.8 |
| 20260506174513 | 64 | 153 | 2.6 | 3.5 | 0.00 | 8.56 | 8.56 | 89 | 1008.8 |
| 20260506174013 | 64 | 105 | 8.7 | 10.4 | 0.00 | 8.56 | 8.56 | 89 | 1008.8 |
| 20260506173510 | 64 | 147 | 5.2 | 7.0 | 0.00 | 8.56 | 8.56 | 89 | 1008.5 |
| 20260506173023 | 64 | 158 | 5.2 | 6.1 | 0.00 | 8.56 | 8.56 | 89 | 1008.8 |
| 20260506172510 | 64 | 157 | 5.2 | 7.0 | 0.00 | 8.56 | 8.56 | 89 | 1008.5 |
| 20260506172013 | 64 | 153 | 7.0 | 7.8 | 0.00 | 8.56 | 8.56 | 89 | 1008.8 |
| 20260506171513 | 64 | 165 | 7.8 | 7.8 | 0.00 | 8.56 | 8.56 | 89 | 1008.8 |
| 20260506171015 | 64 | 192 | 4.3 | 6.1 | 0.00 | 8.56 | 8.56 | 89 | 1008.8 |
| 20260506170509 | 64 | 64 | 3.5 | 5.2 | 0.00 | 8.56 | 8.56 | 89 | 1008.8 |
| 20260506170034 | 64 | 144 | 4.3 | 6.1 | 0.00 | 8.56 | 8.56 | 89 | 1008.8 |
| 20260506165509 | 64 | 148 | 6.1 | 9.6 | 0.00 | 8.56 | 8.56 | 89 | 1008.8 |
| 20260506165014 | 66 | 132 | 7.8 | 10.4 | 0.00 | 8.56 | 8.56 | 89 | 1008.8 |
| 20260506164513 | 66 | 198 | 7.8 | 7.8 | 0.00 | 8.56 | 8.56 | 88 | 1008.8 |
| 20260506164014 | 66 | 152 | 5.2 | 9.6 | 0.00 | 8.56 | 8.56 | 88 | 1009.1 |
| 20260506163510 | 66 | 160 | 9.6 | 13.9 | 0.00 | 8.56 | 8.56 | 87 | 1008.8 |
| 20260506162510 | 66 | 167 | 6.1 | 9.6 | 0.00 | 8.56 | 8.56 | 86 | 1008.8 |
| 20260506162013 | 66 | 134 | 7.8 | 10.4 | 0.00 | 8.56 | 8.56 | 85 | 1008.8 |
| 20260506161513 | 66 | 171 | 7.8 | 9.6 | 0.00 | 8.56 | 8.56 | 85 | 1009.1 |
| 20260506161015 | 66 | 143 | 3.5 | 4.3 | 0.00 | 8.56 | 8.56 | 85 | 1009.1 |
| 20260506160509 | 66 | 137 | 6.1 | 7.0 | 0.00 | 8.56 | 8.56 | 85 | 1009.1 |
| 20260506160036 | 66 | 157 | 9.6 | 10.4 | 0.00 | 8.56 | 8.56 | 85 | 1009.1 |
| 20260506155510 | 66 | 145 | 7.0 | 7.8 | 0.00 | 8.56 | 8.56 | 85 | 1009.1 |
| 20260506155014 | 66 | 171 | 7.8 | 10.4 | 0.00 | 8.56 | 8.56 | 84 | 1009.1 |
| 20260506154512 | 66 | 135 | 7.0 | 10.4 | 0.00 | 8.56 | 8.56 | 84 | 1008.8 |
| 20260506154014 | 66 | 153 | 8.7 | 9.6 | 0.00 | 8.56 | 8.56 | 83 | 1009.1 |
| 20260506153510 | 66 | 132 | 6.1 | 10.4 | 0.00 | 8.56 | 8.56 | 82 | 1009.1 |
| 20260506153024 | 68 | 133 | 9.6 | 12.2 | 0.00 | 8.56 | 8.56 | 80 | 1009.1 |
| 20260506152013 | 70 | 77 | 3.5 | 6.1 | 0.00 | 8.56 | 8.56 | 78 | 1009.1 |
| 20260506151513 | 70 | 215 | 6.1 | 7.8 | 0.00 | 8.56 | 8.56 | 76 | 1008.8 |
| 20260506151014 | 70 | 187 | 5.2 | 7.8 | 0.00 | 8.56 | 8.56 | 77 | 1008.8 |
| 20260506150509 | 70 | 232 | 4.3 | 6.1 | 0.00 | 8.56 | 8.56 | 77 | 1009.1 |
| 20260506150034 | 70 | 212 | 6.1 | 9.6 | 0.00 | 8.56 | 8.56 | 77 | 1009.1 |
| 20260506145510 | 70 | 162 | 4.3 | 5.2 | 0.00 | 8.56 | 8.56 | 78 | 1008.8 |
| 20260506145013 | 70 | 213 | 4.3 | 6.1 | 0.00 | 8.56 | 8.56 | 79 | 1008.8 |
| 20260506144513 | 68 | 216 | 3.5 | 6.1 | 0.00 | 8.56 | 8.56 | 79 | 1009.1 |
| 20260506144014 | 68 | 176 | 7.0 | 9.6 | 0.00 | 8.56 | 8.56 | 79 | 1009.1 |
| 20260506143509 | 68 | 181 | 2.6 | 3.5 | 0.00 | 8.56 | 8.56 | 79 | 1009.1 |
| 20260506143024 | 70 | 127 | 1.7 | 3.5 | 0.00 | 8.56 | 8.56 | 78 | 1008.8 |
| 20260506142509 | 70 | 167 | 6.1 | 7.8 | 0.00 | 8.56 | 8.56 | 78 | 1008.8 |
| 20260506142013 | 68 | 111 | 5.2 | 7.0 | 0.00 | 8.56 | 8.56 | 79 | 1009.1 |
| 20260506141514 | 68 | 176 | 7.0 | 10.4 | 0.00 | 8.56 | 8.56 | 79 | 1009.1 |
| 20260506141014 | 68 | 244 | 6.1 | 10.4 | 0.00 | 8.56 | 8.56 | 79 | 1009.1 |
| 20260506140509 | 68 | 234 | 7.0 | 9.6 | 0.00 | 8.56 | 8.56 | 79 | 1009.1 |
| 20260506140034 | 68 | 230 | 9.6 | 14.8 | 0.00 | 8.56 | 8.56 | 79 | 1009.1 |
| 20260506135509 | 68 | 187 | 4.3 | 7.8 | 0.00 | 8.56 | 8.56 | 79 | 1008.8 |
| 20260506135013 | 68 | 74 | 7.8 | 9.6 | 0.00 | 8.56 | 8.56 | 78 | 1009.1 |
| 20260506134014 | 68 | 184 | 6.1 | 7.8 | 0.00 | 8.56 | 8.56 | 78 | 1009.1 |
| 20260506133510 | 70 | 157 | 1.7 | 2.6 | 0.00 | 8.56 | 8.56 | 79 | 1009.1 |
| 20260506133024 | 68 | 158 | 7.0 | 10.4 | 0.00 | 8.56 | 8.56 | 79 | 1009.1 |
| 20260506132509 | 68 | 316 | 3.5 | 6.1 | 0.00 | 8.56 | 8.56 | 80 | 1008.8 |
| 20260506132013 | 68 | 121 | 7.8 | 10.4 | 0.00 | 8.56 | 8.56 | 80 | 1009.1 |
| 20260506131514 | 68 | 147 | 12.2 | 14.8 | 0.00 | 8.56 | 8.56 | 79 | 1009.1 |
| 20260506131014 | 70 | 134 | 5.2 | 7.8 | 0.00 | 8.56 | 8.56 | 79 | 1008.8 |
| 20260506130509 | 70 | 137 | 5.2 | 7.0 | 0.00 | 8.56 | 8.56 | 79 | 1009.1 |
| 20260506130034 | 70 | 192 | 5.2 | 7.0 | 0.00 | 8.56 | 8.56 | 80 | 1009.1 |
| 20260506125509 | 70 | 305 | 7.8 | 9.6 | 0.00 | 8.56 | 8.56 | 81 | 1009.1 |
| 20260506125015 | 68 | 158 | 5.2 | 7.8 | 0.00 | 8.56 | 8.56 | 81 | 1009.5 |
| 20260506124513 | 68 | 114 | 6.1 | 7.8 | 0.00 | 8.56 | 8.56 | 81 | 1009.5 |
| 20260506124013 | 68 | 180 | 2.6 | 3.5 | 0.00 | 8.56 | 8.56 | 82 | 1009.1 |
| 20260506123509 | 68 | 119 | 3.5 | 4.3 | 0.00 | 8.56 | 8.56 | 82 | 1009.1 |
| 20260506123024 | 68 | 155 | 5.2 | 7.8 | 0.00 | 8.56 | 8.56 | 83 | 1009.1 |
| 20260506122509 | 68 | 182 | 6.1 | 7.8 | 0.00 | 8.56 | 8.56 | 83 | 1009.1 |
| 20260506122014 | 68 | 140 | 10.4 | 12.2 | 0.00 | 8.56 | 8.56 | 83 | 1009.1 |
| 20260506121512 | 68 | 150 | 7.0 | 10.4 | 0.00 | 8.56 | 8.56 | 84 | 1009.1 |
| 20260506121013 | 68 | 71 | 12.2 | 19.1 | 0.00 | 8.56 | 8.56 | 83 | 1009.5 |
| 20260506120510 | 68 | 171 | 10.4 | 12.2 | 0.00 | 8.56 | 8.56 | 84 | 1009.5 |
| 20260506120034 | 68 | 216 | 9.6 | 13.0 | 0.10 | 8.56 | 8.56 | 84 | 1009.5 |
| 20260506115509 | 68 | 180 | 7.8 | 10.4 | 0.10 | 8.56 | 8.56 | 83 | 1009.5 |
| 20260506115013 | 68 | 165 | 7.8 | 13.9 | 0.10 | 8.56 | 8.56 | 84 | 1009.5 |
| 20260506114513 | 68 | 146 | 7.8 | 9.6 | 0.10 | 8.56 | 8.56 | 85 | 1009.1 |
| 20260506114014 | 68 | 163 | 7.0 | 10.4 | 0.10 | 8.56 | 8.56 | 85 | 1009.5 |
| 20260506113509 | 68 | 151 | 10.4 | 13.9 | 0.10 | 8.56 | 8.56 | 84 | 1009.5 |
| 20260506113023 | 68 | 218 | 7.0 | 7.8 | 0.10 | 8.56 | 8.56 | 84 | 1009.1 |
| 20260506112509 | 68 | 178 | 3.5 | 6.1 | 0.10 | 8.56 | 8.56 | 85 | 1009.5 |
| 20260506112013 | 66 | 146 | 14.8 | 17.4 | 0.10 | 8.56 | 8.56 | 84 | 1009.1 |
| 20260506111513 | 68 | 112 | 10.4 | 14.8 | 0.09 | 8.56 | 8.56 | 83 | 1009.1 |
| 20260506111013 | 66 | 178 | 7.8 | 10.4 | 0.09 | 8.56 | 8.56 | 84 | 1009.1 |
| 20260506110509 | 66 | 208 | 10.4 | 19.1 | 0.00 | 8.47 | 8.47 | 84 | 1009.1 |
| 20260506110033 | 66 | 71 | 12.2 | 19.1 | 0.17 | 8.47 | 8.47 | 85 | 1009.1 |
| 20260506105509 | 66 | 174 | 12.2 | 18.2 | 0.17 | 8.47 | 8.47 | 85 | 1009.1 |
| 20260506105013 | 66 | 144 | 10.4 | 18.2 | 0.15 | 8.46 | 8.46 | 86 | 1009.1 |
| 20260506104513 | 68 | 161 | 11.3 | 16.5 | 0.15 | 8.46 | 8.46 | 86 | 1009.1 |
| 20260506104013 | 68 | 172 | 12.2 | 14.8 | 0.09 | 8.39 | 8.39 | 85 | 1009.1 |
| 20260506103509 | 66 | 126 | 4.3 | 6.1 | 0.09 | 8.39 | 8.39 | 86 | 1009.5 |
| 20260506103023 | 68 | 189 | 10.4 | 13.9 | 0.09 | 8.39 | 8.39 | 85 | 1009.5 |
| 20260506102509 | 66 | 150 | 5.2 | 7.8 | 0.08 | 8.38 | 8.38 | 86 | 1009.5 |
| 20260506102013 | 68 | 129 | 10.4 | 12.2 | 0.05 | 8.35 | 8.35 | 85 | 1009.5 |
| 20260506101513 | 68 | 176 | 9.6 | 10.4 | 0.05 | 8.35 | 8.35 | 85 | 1009.5 |
| 20260506101013 | 66 | 277 | 13.9 | 16.5 | 0.04 | 8.34 | 8.34 | 86 | 1009.5 |
| 20260506100509 | 68 | 103 | 1.7 | 3.5 | 0.00 | 8.30 | 8.30 | 87 | 1009.1 |
| 20260506100035 | 66 | 116 | 13.9 | 16.5 | 0.02 | 8.30 | 8.30 | 88 | 1009.5 |
| 20260506095510 | 66 | 111 | 8.7 | 10.4 | 0.01 | 8.29 | 8.29 | 89 | 1009.5 |
| 20260506095013 | 66 | 238 | 11.3 | 16.5 | 0.01 | 8.29 | 8.29 | 89 | 1009.5 |
| 20260506094513 | 66 | 168 | 7.0 | 9.6 | 0.01 | 8.29 | 8.29 | 90 | 1009.5 |
| 20260506094014 | 66 | 180 | 10.4 | 13.9 | 0.00 | 8.28 | 8.28 | 90 | 1009.5 |
| 20260506093509 | 66 | 192 | 5.2 | 7.0 | 0.00 | 8.28 | 8.28 | 90 | 1009.1 |
| 20260506093024 | 66 | 129 | 10.4 | 16.5 | 0.00 | 8.28 | 8.28 | 89 | 1009.5 |
| 20260506092509 | 66 | 159 | 8.7 | 13.9 | 0.00 | 8.28 | 8.28 | 89 | 1009.1 |
| 20260506092013 | 66 | 178 | 9.6 | 13.0 | 0.00 | 8.28 | 8.28 | 89 | 1009.1 |
| 20260506091513 | 66 | 188 | 7.8 | 9.6 | 0.00 | 8.28 | 8.28 | 89 | 1009.1 |
| 20260506091013 | 66 | 189 | 10.4 | 13.9 | 0.00 | 8.28 | 8.28 | 89 | 1009.1 |
| 20260506090509 | 66 | 157 | 12.2 | 14.8 | 0.00 | 8.28 | 8.28 | 89 | 1009.1 |